sensor_id;sensor_type;location;lat;lon;timestamp;temperature;humidity
13482;DHT22;6813;60.352;15.746;2023-07-29T00:01:34;15.40;99.90
13482;DHT22;6813;60.352;15.746;2023-07-29T00:04:00;15.30;99.90
13482;DHT22;6813;60.352;15.746;2023-07-29T00:06:27;15.30;99.90
13482;DHT22;6813;60.352;15.746;2023-07-29T00:08:52;15.20;99.90
13482;DHT22;6813;60.352;15.746;2023-07-29T00:11:18;15.20;99.90
13482;DHT22;6813;60.352;15.746;2023-07-29T00:13:44;15.20;99.90
13482;DHT22;6813;60.352;15.746;2023-07-29T00:16:10;15.20;99.90
13482;DHT22;6813;60.352;15.746;2023-07-29T00:18:35;15.10;99.90
13482;DHT22;6813;60.352;15.746;2023-07-29T00:21:01;15.10;99.90
13482;DHT22;6813;60.352;15.746;2023-07-29T00:23:27;15.10;99.90
13482;DHT22;6813;60.352;15.746;2023-07-29T00:25:53;15.10;99.90
13482;DHT22;6813;60.352;15.746;2023-07-29T00:28:19;15.10;99.90
13482;DHT22;6813;60.352;15.746;2023-07-29T00:30:44;15.10;99.90
13482;DHT22;6813;60.352;15.746;2023-07-29T00:33:10;15.00;99.90
13482;DHT22;6813;60.352;15.746;2023-07-29T00:35:35;15.00;99.90
13482;DHT22;6813;60.352;15.746;2023-07-29T00:38:01;15.00;99.90
13482;DHT22;6813;60.352;15.746;2023-07-29T00:40:28;15.10;99.90
13482;DHT22;6813;60.352;15.746;2023-07-29T00:42:54;15.00;99.90
13482;DHT22;6813;60.352;15.746;2023-07-29T00:45:20;15.00;99.90
13482;DHT22;6813;60.352;15.746;2023-07-29T00:47:46;15.00;99.90
13482;DHT22;6813;60.352;15.746;2023-07-29T00:50:14;15.00;99.90
13482;DHT22;6813;60.352;15.746;2023-07-29T00:52:40;15.10;99.90
13482;DHT22;6813;60.352;15.746;2023-07-29T00:55:07;15.00;99.90
13482;DHT22;6813;60.352;15.746;2023-07-29T00:57:33;15.00;99.90
13482;DHT22;6813;60.352;15.746;2023-07-29T01:00:00;15.00;99.90
13482;DHT22;6813;60.352;15.746;2023-07-29T01:02:26;15.00;99.90
13482;DHT22;6813;60.352;15.746;2023-07-29T01:04:58;14.90;99.90
13482;DHT22;6813;60.352;15.746;2023-07-29T01:07:39;14.90;99.90
13482;DHT22;6813;60.352;15.746;2023-07-29T01:15:55;14.90;99.90
13482;DHT22;6813;60.352;15.746;2023-07-29T01:18:30;14.90;99.90
13482;DHT22;6813;60.352;15.746;2023-07-29T01:21:03;14.80;99.90
13482;DHT22;6813;60.352;15.746;2023-07-29T01:23:30;14.70;99.90
13482;DHT22;6813;60.352;15.746;2023-07-29T01:25:56;14.70;99.90
13482;DHT22;6813;60.352;15.746;2023-07-29T01:28:23;14.60;99.90
13482;DHT22;6813;60.352;15.746;2023-07-29T01:30:51;14.60;99.90
13482;DHT22;6813;60.352;15.746;2023-07-29T01:33:25;14.60;99.90
13482;DHT22;6813;60.352;15.746;2023-07-29T01:38:38;14.50;99.90
13482;DHT22;6813;60.352;15.746;2023-07-29T01:41:07;14.50;99.90
13482;DHT22;6813;60.352;15.746;2023-07-29T01:43:33;14.50;99.90
13482;DHT22;6813;60.352;15.746;2023-07-29T01:46:00;14.50;99.90
13482;DHT22;6813;60.352;15.746;2023-07-29T01:48:26;14.40;99.90
13482;DHT22;6813;60.352;15.746;2023-07-29T01:50:54;14.40;99.90
13482;DHT22;6813;60.352;15.746;2023-07-29T01:53:19;14.30;99.90
13482;DHT22;6813;60.352;15.746;2023-07-29T01:55:45;14.30;99.90
13482;DHT22;6813;60.352;15.746;2023-07-29T01:58:11;14.40;99.90
13482;DHT22;6813;60.352;15.746;2023-07-29T02:00:37;14.30;99.90
13482;DHT22;6813;60.352;15.746;2023-07-29T02:03:03;14.40;99.90
13482;DHT22;6813;60.352;15.746;2023-07-29T02:05:28;14.30;99.90
13482;DHT22;6813;60.352;15.746;2023-07-29T02:07:54;14.20;99.90
13482;DHT22;6813;60.352;15.746;2023-07-29T02:10:20;14.20;99.90
13482;DHT22;6813;60.352;15.746;2023-07-29T02:12:45;14.20;99.90
13482;DHT22;6813;60.352;15.746;2023-07-29T02:15:11;14.10;99.90
13482;DHT22;6813;60.352;15.746;2023-07-29T02:17:37;14.10;99.90
13482;DHT22;6813;60.352;15.746;2023-07-29T02:20:03;14.10;99.90
13482;DHT22;6813;60.352;15.746;2023-07-29T02:22:29;14.10;99.90
13482;DHT22;6813;60.352;15.746;2023-07-29T02:24:55;14.10;99.90
13482;DHT22;6813;60.352;15.746;2023-07-29T02:27:21;14.10;99.90
13482;DHT22;6813;60.352;15.746;2023-07-29T02:29:47;14.10;99.90
13482;DHT22;6813;60.352;15.746;2023-07-29T02:32:13;14.10;99.90
13482;DHT22;6813;60.352;15.746;2023-07-29T02:34:38;14.00;99.90
13482;DHT22;6813;60.352;15.746;2023-07-29T02:37:04;14.10;99.90
13482;DHT22;6813;60.352;15.746;2023-07-29T02:39:30;14.00;99.90
13482;DHT22;6813;60.352;15.746;2023-07-29T02:41:56;14.10;99.90
13482;DHT22;6813;60.352;15.746;2023-07-29T02:44:24;14.00;99.90
13482;DHT22;6813;60.352;15.746;2023-07-29T02:46:49;13.90;99.90
13482;DHT22;6813;60.352;15.746;2023-07-29T02:49:17;13.90;99.90
13482;DHT22;6813;60.352;15.746;2023-07-29T02:51:43;13.90;99.90
13482;DHT22;6813;60.352;15.746;2023-07-29T02:54:08;13.90;99.90
13482;DHT22;6813;60.352;15.746;2023-07-29T02:56:34;13.90;99.90
13482;DHT22;6813;60.352;15.746;2023-07-29T02:59:00;13.80;99.90
13482;DHT22;6813;60.352;15.746;2023-07-29T03:01:26;13.80;99.90
13482;DHT22;6813;60.352;15.746;2023-07-29T03:03:52;13.80;99.90
13482;DHT22;6813;60.352;15.746;2023-07-29T03:06:18;13.70;99.90
13482;DHT22;6813;60.352;15.746;2023-07-29T03:08:44;13.80;99.90
13482;DHT22;6813;60.352;15.746;2023-07-29T03:11:13;13.80;99.90
13482;DHT22;6813;60.352;15.746;2023-07-29T03:13:39;13.80;99.90
13482;DHT22;6813;60.352;15.746;2023-07-29T03:16:09;13.80;99.90
13482;DHT22;6813;60.352;15.746;2023-07-29T03:18:36;13.80;99.90
13482;DHT22;6813;60.352;15.746;2023-07-29T03:21:02;13.70;99.90
13482;DHT22;6813;60.352;15.746;2023-07-29T03:23:29;13.70;99.90
13482;DHT22;6813;60.352;15.746;2023-07-29T03:25:55;13.70;99.90
13482;DHT22;6813;60.352;15.746;2023-07-29T03:28:27;13.70;99.90
13482;DHT22;6813;60.352;15.746;2023-07-29T03:30:54;13.70;99.90
13482;DHT22;6813;60.352;15.746;2023-07-29T03:33:20;13.70;99.90
13482;DHT22;6813;60.352;15.746;2023-07-29T03:35:45;13.70;99.90
13482;DHT22;6813;60.352;15.746;2023-07-29T03:38:11;13.70;99.90
13482;DHT22;6813;60.352;15.746;2023-07-29T03:40:38;13.80;99.90
13482;DHT22;6813;60.352;15.746;2023-07-29T03:43:04;13.80;99.90
13482;DHT22;6813;60.352;15.746;2023-07-29T03:45:30;13.80;99.90
13482;DHT22;6813;60.352;15.746;2023-07-29T03:47:56;13.90;99.90
13482;DHT22;6813;60.352;15.746;2023-07-29T03:50:21;13.80;99.90
13482;DHT22;6813;60.352;15.746;2023-07-29T03:52:47;13.90;99.90
13482;DHT22;6813;60.352;15.746;2023-07-29T03:55:13;13.90;99.90
13482;DHT22;6813;60.352;15.746;2023-07-29T03:57:39;13.90;99.90
13482;DHT22;6813;60.352;15.746;2023-07-29T04:00:05;14.00;99.90
13482;DHT22;6813;60.352;15.746;2023-07-29T04:02:31;14.00;99.90
13482;DHT22;6813;60.352;15.746;2023-07-29T04:04:57;14.00;99.90
13482;DHT22;6813;60.352;15.746;2023-07-29T04:07:23;14.10;99.90
13482;DHT22;6813;60.352;15.746;2023-07-29T04:09:49;14.20;99.90
13482;DHT22;6813;60.352;15.746;2023-07-29T04:12:15;14.30;99.90
13482;DHT22;6813;60.352;15.746;2023-07-29T04:14:41;14.30;99.90
13482;DHT22;6813;60.352;15.746;2023-07-29T04:17:07;14.50;99.90
13482;DHT22;6813;60.352;15.746;2023-07-29T04:19:33;14.50;99.90
13482;DHT22;6813;60.352;15.746;2023-07-29T04:21:59;14.60;99.90
13482;DHT22;6813;60.352;15.746;2023-07-29T04:24:25;14.80;99.90
13482;DHT22;6813;60.352;15.746;2023-07-29T04:26:50;15.00;99.90
13482;DHT22;6813;60.352;15.746;2023-07-29T04:29:16;15.20;99.90
13482;DHT22;6813;60.352;15.746;2023-07-29T04:31:42;15.40;99.90
13482;DHT22;6813;60.352;15.746;2023-07-29T04:34:08;15.60;99.90
13482;DHT22;6813;60.352;15.746;2023-07-29T04:36:33;15.90;99.90
13482;DHT22;6813;60.352;15.746;2023-07-29T04:38:59;16.10;99.90
13482;DHT22;6813;60.352;15.746;2023-07-29T04:41:25;16.40;99.90
13482;DHT22;6813;60.352;15.746;2023-07-29T04:43:50;16.60;99.90
13482;DHT22;6813;60.352;15.746;2023-07-29T04:46:16;16.80;99.90
13482;DHT22;6813;60.352;15.746;2023-07-29T04:48:42;17.10;99.90
13482;DHT22;6813;60.352;15.746;2023-07-29T04:51:07;17.40;99.90
13482;DHT22;6813;60.352;15.746;2023-07-29T04:53:33;17.60;99.90
13482;DHT22;6813;60.352;15.746;2023-07-29T04:56:00;17.90;99.90
13482;DHT22;6813;60.352;15.746;2023-07-29T04:58:26;18.10;99.90
13482;DHT22;6813;60.352;15.746;2023-07-29T05:00:54;18.40;99.90
13482;DHT22;6813;60.352;15.746;2023-07-29T05:03:20;18.60;99.90
13482;DHT22;6813;60.352;15.746;2023-07-29T05:05:46;18.80;99.90
13482;DHT22;6813;60.352;15.746;2023-07-29T05:08:11;19.10;99.90
13482;DHT22;6813;60.352;15.746;2023-07-29T05:10:37;19.30;99.90
13482;DHT22;6813;60.352;15.746;2023-07-29T05:13:03;19.50;99.90
13482;DHT22;6813;60.352;15.746;2023-07-29T05:15:28;19.70;99.90
13482;DHT22;6813;60.352;15.746;2023-07-29T05:17:54;19.90;99.90
13482;DHT22;6813;60.352;15.746;2023-07-29T05:20:20;20.00;99.90
13482;DHT22;6813;60.352;15.746;2023-07-29T05:22:45;20.20;99.90
13482;DHT22;6813;60.352;15.746;2023-07-29T05:25:11;20.40;99.90
13482;DHT22;6813;60.352;15.746;2023-07-29T05:27:37;20.60;99.90
13482;DHT22;6813;60.352;15.746;2023-07-29T05:30:02;20.90;99.90
13482;DHT22;6813;60.352;15.746;2023-07-29T05:32:28;21.00;99.90
13482;DHT22;6813;60.352;15.746;2023-07-29T05:34:55;21.10;99.90
13482;DHT22;6813;60.352;15.746;2023-07-29T05:37:20;21.20;99.90
13482;DHT22;6813;60.352;15.746;2023-07-29T05:39:46;21.40;99.90
13482;DHT22;6813;60.352;15.746;2023-07-29T05:42:12;21.60;99.90
13482;DHT22;6813;60.352;15.746;2023-07-29T05:44:37;21.90;99.90
13482;DHT22;6813;60.352;15.746;2023-07-29T05:47:03;22.30;99.90
13482;DHT22;6813;60.352;15.746;2023-07-29T05:49:29;22.50;99.90
13482;DHT22;6813;60.352;15.746;2023-07-29T05:51:54;22.80;99.90
13482;DHT22;6813;60.352;15.746;2023-07-29T05:54:20;23.10;99.90
13482;DHT22;6813;60.352;15.746;2023-07-29T05:56:46;23.10;99.20
13482;DHT22;6813;60.352;15.746;2023-07-29T05:59:11;23.10;99.90
13482;DHT22;6813;60.352;15.746;2023-07-29T06:01:37;23.20;99.10
13482;DHT22;6813;60.352;15.746;2023-07-29T06:04:03;23.30;99.40
13482;DHT22;6813;60.352;15.746;2023-07-29T06:06:29;23.40;99.10
13482;DHT22;6813;60.352;15.746;2023-07-29T06:08:55;23.60;98.60
13482;DHT22;6813;60.352;15.746;2023-07-29T06:11:20;23.70;97.90
13482;DHT22;6813;60.352;15.746;2023-07-29T06:13:47;23.70;98.00
13482;DHT22;6813;60.352;15.746;2023-07-29T06:16:13;23.60;97.50
13482;DHT22;6813;60.352;15.746;2023-07-29T06:18:39;23.70;97.10
13482;DHT22;6813;60.352;15.746;2023-07-29T06:21:05;23.90;97.50
13482;DHT22;6813;60.352;15.746;2023-07-29T06:23:33;24.00;98.40
13482;DHT22;6813;60.352;15.746;2023-07-29T06:25:59;24.20;96.50
13482;DHT22;6813;60.352;15.746;2023-07-29T06:28:26;24.30;97.40
13482;DHT22;6813;60.352;15.746;2023-07-29T06:30:52;24.60;96.50
13482;DHT22;6813;60.352;15.746;2023-07-29T06:33:18;24.60;95.70
13482;DHT22;6813;60.352;15.746;2023-07-29T06:35:43;24.90;97.70
13482;DHT22;6813;60.352;15.746;2023-07-29T06:38:09;25.10;96.40
13482;DHT22;6813;60.352;15.746;2023-07-29T06:40:35;25.40;94.70
13482;DHT22;6813;60.352;15.746;2023-07-29T06:43:01;25.50;95.10
13482;DHT22;6813;60.352;15.746;2023-07-29T06:45:26;25.60;93.10
13482;DHT22;6813;60.352;15.746;2023-07-29T06:47:52;25.60;93.60
13482;DHT22;6813;60.352;15.746;2023-07-29T06:50:18;25.50;91.70
13482;DHT22;6813;60.352;15.746;2023-07-29T06:52:44;25.40;93.70
13482;DHT22;6813;60.352;15.746;2023-07-29T06:55:10;25.60;94.60
13482;DHT22;6813;60.352;15.746;2023-07-29T06:57:36;25.90;92.90
13482;DHT22;6813;60.352;15.746;2023-07-29T07:00:02;26.00;92.10
13482;DHT22;6813;60.352;15.746;2023-07-29T07:02:28;26.00;91.90
13482;DHT22;6813;60.352;15.746;2023-07-29T07:04:54;26.00;90.20
13482;DHT22;6813;60.352;15.746;2023-07-29T07:07:20;26.10;91.40
13482;DHT22;6813;60.352;15.746;2023-07-29T07:09:45;26.10;90.20
13482;DHT22;6813;60.352;15.746;2023-07-29T07:12:11;25.90;88.40
13482;DHT22;6813;60.352;15.746;2023-07-29T07:14:37;25.60;88.80
13482;DHT22;6813;60.352;15.746;2023-07-29T07:17:03;25.80;90.60
13482;DHT22;6813;60.352;15.746;2023-07-29T07:19:29;25.80;91.30
13482;DHT22;6813;60.352;15.746;2023-07-29T07:21:55;26.10;91.10
13482;DHT22;6813;60.352;15.746;2023-07-29T07:24:20;26.50;91.40
13482;DHT22;6813;60.352;15.746;2023-07-29T07:26:46;26.80;90.30
13482;DHT22;6813;60.352;15.746;2023-07-29T07:29:12;27.00;89.20
13482;DHT22;6813;60.352;15.746;2023-07-29T07:31:37;27.00;88.70
13482;DHT22;6813;60.352;15.746;2023-07-29T07:34:03;27.00;86.80
13482;DHT22;6813;60.352;15.746;2023-07-29T07:36:29;27.00;87.40
13482;DHT22;6813;60.352;15.746;2023-07-29T07:38:55;27.10;87.90
13482;DHT22;6813;60.352;15.746;2023-07-29T07:41:20;27.00;86.00
13482;DHT22;6813;60.352;15.746;2023-07-29T07:43:46;27.00;89.10
13482;DHT22;6813;60.352;15.746;2023-07-29T07:46:12;26.80;86.80
13482;DHT22;6813;60.352;15.746;2023-07-29T07:48:38;26.70;86.20
13482;DHT22;6813;60.352;15.746;2023-07-29T07:51:11;26.90;87.30
13482;DHT22;6813;60.352;15.746;2023-07-29T07:53:37;27.00;89.10
13482;DHT22;6813;60.352;15.746;2023-07-29T07:56:03;27.20;85.70
13482;DHT22;6813;60.352;15.746;2023-07-29T07:58:29;27.30;85.50
13482;DHT22;6813;60.352;15.746;2023-07-29T08:01:04;27.50;84.40
13482;DHT22;6813;60.352;15.746;2023-07-29T08:03:30;27.60;84.90
13482;DHT22;6813;60.352;15.746;2023-07-29T08:05:56;27.60;83.60
13482;DHT22;6813;60.352;15.746;2023-07-29T08:08:22;27.50;82.10
13482;DHT22;6813;60.352;15.746;2023-07-29T08:10:47;27.40;84.30
13482;DHT22;6813;60.352;15.746;2023-07-29T08:13:13;27.40;83.80
13482;DHT22;6813;60.352;15.746;2023-07-29T08:15:39;27.40;82.50
13482;DHT22;6813;60.352;15.746;2023-07-29T08:18:06;27.30;82.30
13482;DHT22;6813;60.352;15.746;2023-07-29T08:20:32;27.40;79.70
13482;DHT22;6813;60.352;15.746;2023-07-29T08:22:58;27.40;84.40
13482;DHT22;6813;60.352;15.746;2023-07-29T08:25:23;27.40;82.20
13482;DHT22;6813;60.352;15.746;2023-07-29T08:27:49;27.40;85.30
13482;DHT22;6813;60.352;15.746;2023-07-29T08:30:15;27.40;82.90
13482;DHT22;6813;60.352;15.746;2023-07-29T08:32:41;27.50;83.20
13482;DHT22;6813;60.352;15.746;2023-07-29T08:35:07;27.60;80.90
13482;DHT22;6813;60.352;15.746;2023-07-29T08:37:33;27.50;80.00
13482;DHT22;6813;60.352;15.746;2023-07-29T08:39:59;27.30;80.20
13482;DHT22;6813;60.352;15.746;2023-07-29T08:42:29;27.50;83.20
13482;DHT22;6813;60.352;15.746;2023-07-29T08:44:56;27.60;83.10
13482;DHT22;6813;60.352;15.746;2023-07-29T08:47:25;27.50;79.10
13482;DHT22;6813;60.352;15.746;2023-07-29T08:49:52;27.50;84.20
13482;DHT22;6813;60.352;15.746;2023-07-29T08:52:18;27.60;81.00
13482;DHT22;6813;60.352;15.746;2023-07-29T08:54:45;27.70;77.40
13482;DHT22;6813;60.352;15.746;2023-07-29T08:57:11;27.50;82.10
13482;DHT22;6813;60.352;15.746;2023-07-29T08:59:39;27.60;80.10
13482;DHT22;6813;60.352;15.746;2023-07-29T09:02:04;27.70;83.60
13482;DHT22;6813;60.352;15.746;2023-07-29T09:04:31;27.60;82.20
13482;DHT22;6813;60.352;15.746;2023-07-29T09:06:58;27.60;78.50
13482;DHT22;6813;60.352;15.746;2023-07-29T09:09:25;27.70;81.00
13482;DHT22;6813;60.352;15.746;2023-07-29T09:11:56;27.90;79.90
13482;DHT22;6813;60.352;15.746;2023-07-29T09:14:22;27.90;79.10
13482;DHT22;6813;60.352;15.746;2023-07-29T09:16:49;27.80;76.80
13482;DHT22;6813;60.352;15.746;2023-07-29T09:19:14;27.90;79.10
13482;DHT22;6813;60.352;15.746;2023-07-29T09:21:41;28.00;78.90
13482;DHT22;6813;60.352;15.746;2023-07-29T09:24:07;27.80;81.30
13482;DHT22;6813;60.352;15.746;2023-07-29T09:26:49;27.90;75.70
13482;DHT22;6813;60.352;15.746;2023-07-29T09:29:15;28.00;77.80
13482;DHT22;6813;60.352;15.746;2023-07-29T09:31:41;27.80;77.80
13482;DHT22;6813;60.352;15.746;2023-07-29T09:34:07;27.90;74.20
13482;DHT22;6813;60.352;15.746;2023-07-29T09:36:34;27.80;77.70
13482;DHT22;6813;60.352;15.746;2023-07-29T09:39:01;27.90;75.90
13482;DHT22;6813;60.352;15.746;2023-07-29T09:41:28;27.60;75.70
13482;DHT22;6813;60.352;15.746;2023-07-29T09:44:01;27.60;77.30
13482;DHT22;6813;60.352;15.746;2023-07-29T09:46:33;27.60;77.10
13482;DHT22;6813;60.352;15.746;2023-07-29T09:49:00;27.70;78.00
13482;DHT22;6813;60.352;15.746;2023-07-29T09:51:26;27.70;78.90
13482;DHT22;6813;60.352;15.746;2023-07-29T09:53:52;27.70;70.20
13482;DHT22;6813;60.352;15.746;2023-07-29T09:56:18;27.60;73.40
13482;DHT22;6813;60.352;15.746;2023-07-29T09:58:50;27.50;72.40
13482;DHT22;6813;60.352;15.746;2023-07-29T10:01:15;27.30;71.40
13482;DHT22;6813;60.352;15.746;2023-07-29T10:03:42;27.40;73.20
13482;DHT22;6813;60.352;15.746;2023-07-29T10:06:09;27.60;75.30
13482;DHT22;6813;60.352;15.746;2023-07-29T10:08:37;27.60;72.80
13482;DHT22;6813;60.352;15.746;2023-07-29T10:11:09;27.70;76.80
13482;DHT22;6813;60.352;15.746;2023-07-29T10:13:36;27.70;75.20
13482;DHT22;6813;60.352;15.746;2023-07-29T10:16:03;27.70;69.80
13482;DHT22;6813;60.352;15.746;2023-07-29T10:18:29;27.60;70.70
13482;DHT22;6813;60.352;15.746;2023-07-29T10:20:57;27.60;65.30
13482;DHT22;6813;60.352;15.746;2023-07-29T10:23:25;27.60;74.20
13482;DHT22;6813;60.352;15.746;2023-07-29T10:26:05;27.60;66.90
13482;DHT22;6813;60.352;15.746;2023-07-29T10:28:32;27.50;70.00
13482;DHT22;6813;60.352;15.746;2023-07-29T10:30:59;27.50;70.70
13482;DHT22;6813;60.352;15.746;2023-07-29T10:33:25;27.50;70.10
13482;DHT22;6813;60.352;15.746;2023-07-29T10:35:52;27.50;69.10
13482;DHT22;6813;60.352;15.746;2023-07-29T10:38:22;27.60;67.60
13482;DHT22;6813;60.352;15.746;2023-07-29T10:40:51;27.50;69.00
13482;DHT22;6813;60.352;15.746;2023-07-29T10:43:35;27.60;70.20
13482;DHT22;6813;60.352;15.746;2023-07-29T10:46:22;27.70;70.30
13482;DHT22;6813;60.352;15.746;2023-07-29T10:53:56;27.90;72.40
13482;DHT22;6813;60.352;15.746;2023-07-29T10:56:30;27.80;69.60
13482;DHT22;6813;60.352;15.746;2023-07-29T11:01:41;27.90;67.60
13482;DHT22;6813;60.352;15.746;2023-07-29T11:09:53;28.10;68.70
13482;DHT22;6813;60.352;15.746;2023-07-29T11:15:22;28.10;70.20
13482;DHT22;6813;60.352;15.746;2023-07-29T11:17:59;27.80;68.10
13482;DHT22;6813;60.352;15.746;2023-07-29T11:22:53;27.30;68.30
13482;DHT22;6813;60.352;15.746;2023-07-29T11:25:22;27.10;72.50
13482;DHT22;6813;60.352;15.746;2023-07-29T11:27:48;27.30;72.70
13482;DHT22;6813;60.352;15.746;2023-07-29T11:30:15;27.30;69.60
13482;DHT22;6813;60.352;15.746;2023-07-29T11:32:42;27.30;69.90
13482;DHT22;6813;60.352;15.746;2023-07-29T11:35:11;26.80;66.90
13482;DHT22;6813;60.352;15.746;2023-07-29T11:37:39;26.70;69.50
13482;DHT22;6813;60.352;15.746;2023-07-29T11:40:05;26.70;68.30
13482;DHT22;6813;60.352;15.746;2023-07-29T11:42:35;26.70;65.90
13482;DHT22;6813;60.352;15.746;2023-07-29T11:45:04;26.70;68.70
13482;DHT22;6813;60.352;15.746;2023-07-29T11:47:32;27.10;67.70
13482;DHT22;6813;60.352;15.746;2023-07-29T11:50:03;27.30;69.30
13482;DHT22;6813;60.352;15.746;2023-07-29T11:52:32;27.40;70.80
13482;DHT22;6813;60.352;15.746;2023-07-29T11:54:58;27.40;71.60
13482;DHT22;6813;60.352;15.746;2023-07-29T11:57:25;27.40;71.40
13482;DHT22;6813;60.352;15.746;2023-07-29T11:59:51;27.50;73.70
13482;DHT22;6813;60.352;15.746;2023-07-29T12:02:19;27.50;72.30
13482;DHT22;6813;60.352;15.746;2023-07-29T12:04:47;27.40;70.00
13482;DHT22;6813;60.352;15.746;2023-07-29T12:07:14;27.40;66.70
13482;DHT22;6813;60.352;15.746;2023-07-29T12:09:44;27.20;66.50
13482;DHT22;6813;60.352;15.746;2023-07-29T12:12:10;27.00;66.90
13482;DHT22;6813;60.352;15.746;2023-07-29T12:14:36;26.90;71.50
13482;DHT22;6813;60.352;15.746;2023-07-29T12:17:06;26.90;68.20
13482;DHT22;6813;60.352;15.746;2023-07-29T12:19:33;27.10;70.80
13482;DHT22;6813;60.352;15.746;2023-07-29T12:22:04;27.20;67.60
13482;DHT22;6813;60.352;15.746;2023-07-29T12:24:31;27.00;67.80
13482;DHT22;6813;60.352;15.746;2023-07-29T12:26:57;26.60;68.20
13482;DHT22;6813;60.352;15.746;2023-07-29T12:29:23;26.70;69.90
13482;DHT22;6813;60.352;15.746;2023-07-29T12:32:02;26.90;70.90
13482;DHT22;6813;60.352;15.746;2023-07-29T12:34:29;26.90;70.90
13482;DHT22;6813;60.352;15.746;2023-07-29T12:36:57;26.90;69.30
13482;DHT22;6813;60.352;15.746;2023-07-29T12:39:26;27.00;65.90
13482;DHT22;6813;60.352;15.746;2023-07-29T12:42:00;27.00;69.70
13482;DHT22;6813;60.352;15.746;2023-07-29T12:44:35;27.00;67.00
13482;DHT22;6813;60.352;15.746;2023-07-29T12:47:02;27.00;67.90
13482;DHT22;6813;60.352;15.746;2023-07-29T12:49:28;26.90;71.90
13482;DHT22;6813;60.352;15.746;2023-07-29T12:51:58;26.90;69.90
13482;DHT22;6813;60.352;15.746;2023-07-29T12:54:24;26.90;66.70
13482;DHT22;6813;60.352;15.746;2023-07-29T12:56:50;26.90;67.40
13482;DHT22;6813;60.352;15.746;2023-07-29T12:59:16;26.80;67.80
13482;DHT22;6813;60.352;15.746;2023-07-29T13:01:42;26.80;69.10
13482;DHT22;6813;60.352;15.746;2023-07-29T13:04:09;26.80;68.90
13482;DHT22;6813;60.352;15.746;2023-07-29T13:06:34;26.80;67.50
13482;DHT22;6813;60.352;15.746;2023-07-29T13:09:00;26.80;67.40
13482;DHT22;6813;60.352;15.746;2023-07-29T13:11:25;26.90;70.50
13482;DHT22;6813;60.352;15.746;2023-07-29T13:13:51;26.80;69.10
13482;DHT22;6813;60.352;15.746;2023-07-29T13:16:17;26.90;69.10
13482;DHT22;6813;60.352;15.746;2023-07-29T13:18:43;26.80;69.50
13482;DHT22;6813;60.352;15.746;2023-07-29T13:21:09;26.70;68.40
13482;DHT22;6813;60.352;15.746;2023-07-29T13:23:35;26.60;70.20
13482;DHT22;6813;60.352;15.746;2023-07-29T13:26:01;26.50;69.30
13482;DHT22;6813;60.352;15.746;2023-07-29T13:28:26;26.60;71.60
13482;DHT22;6813;60.352;15.746;2023-07-29T13:30:52;26.60;70.40
13482;DHT22;6813;60.352;15.746;2023-07-29T13:33:18;26.60;66.00
13482;DHT22;6813;60.352;15.746;2023-07-29T13:35:43;26.50;67.80
13482;DHT22;6813;60.352;15.746;2023-07-29T13:38:09;26.50;68.10
13482;DHT22;6813;60.352;15.746;2023-07-29T13:40:36;26.50;69.50
13482;DHT22;6813;60.352;15.746;2023-07-29T13:43:02;26.40;66.30
13482;DHT22;6813;60.352;15.746;2023-07-29T13:45:27;26.20;64.80
13482;DHT22;6813;60.352;15.746;2023-07-29T13:47:53;25.90;66.00
13482;DHT22;6813;60.352;15.746;2023-07-29T13:50:19;25.70;66.60
13482;DHT22;6813;60.352;15.746;2023-07-29T13:52:44;25.50;69.00
13482;DHT22;6813;60.352;15.746;2023-07-29T13:55:10;25.50;69.10
13482;DHT22;6813;60.352;15.746;2023-07-29T13:57:37;25.50;70.50
13482;DHT22;6813;60.352;15.746;2023-07-29T14:00:05;25.50;71.00
13482;DHT22;6813;60.352;15.746;2023-07-29T14:02:32;25.70;71.20
13482;DHT22;6813;60.352;15.746;2023-07-29T14:04:57;25.60;71.00
13482;DHT22;6813;60.352;15.746;2023-07-29T14:07:23;25.60;70.10
13482;DHT22;6813;60.352;15.746;2023-07-29T14:09:49;25.70;69.20
13482;DHT22;6813;60.352;15.746;2023-07-29T14:12:14;25.70;67.60
13482;DHT22;6813;60.352;15.746;2023-07-29T14:14:41;25.50;69.60
13482;DHT22;6813;60.352;15.746;2023-07-29T14:17:07;25.70;72.30
13482;DHT22;6813;60.352;15.746;2023-07-29T14:19:37;25.80;73.70
13482;DHT22;6813;60.352;15.746;2023-07-29T14:22:03;25.90;72.10
13482;DHT22;6813;60.352;15.746;2023-07-29T14:24:29;25.90;74.10
13482;DHT22;6813;60.352;15.746;2023-07-29T14:26:54;25.90;73.90
13482;DHT22;6813;60.352;15.746;2023-07-29T14:29:20;25.90;73.40
13482;DHT22;6813;60.352;15.746;2023-07-29T14:31:46;25.80;72.00
13482;DHT22;6813;60.352;15.746;2023-07-29T14:34:11;25.70;72.80
13482;DHT22;6813;60.352;15.746;2023-07-29T14:36:37;25.70;75.20
13482;DHT22;6813;60.352;15.746;2023-07-29T14:39:03;25.70;71.90
13482;DHT22;6813;60.352;15.746;2023-07-29T14:41:30;25.70;72.10
13482;DHT22;6813;60.352;15.746;2023-07-29T14:43:56;25.60;73.80
13482;DHT22;6813;60.352;15.746;2023-07-29T14:46:21;25.70;75.20
13482;DHT22;6813;60.352;15.746;2023-07-29T14:48:47;25.80;76.80
13482;DHT22;6813;60.352;15.746;2023-07-29T14:51:13;25.80;76.10
13482;DHT22;6813;60.352;15.746;2023-07-29T14:53:39;25.50;73.40
13482;DHT22;6813;60.352;15.746;2023-07-29T14:56:04;25.50;74.30
13482;DHT22;6813;60.352;15.746;2023-07-29T14:58:30;25.40;74.80
13482;DHT22;6813;60.352;15.746;2023-07-29T15:00:56;25.20;75.50
13482;DHT22;6813;60.352;15.746;2023-07-29T15:03:24;25.20;76.60
13482;DHT22;6813;60.352;15.746;2023-07-29T15:05:50;25.30;76.60
13482;DHT22;6813;60.352;15.746;2023-07-29T15:08:16;25.40;77.60
13482;DHT22;6813;60.352;15.746;2023-07-29T15:10:47;25.50;76.20
13482;DHT22;6813;60.352;15.746;2023-07-29T15:13:13;25.30;76.60
13482;DHT22;6813;60.352;15.746;2023-07-29T15:15:45;25.30;76.20
13482;DHT22;6813;60.352;15.746;2023-07-29T15:18:11;25.20;77.60
13482;DHT22;6813;60.352;15.746;2023-07-29T15:20:36;25.30;80.40
13482;DHT22;6813;60.352;15.746;2023-07-29T15:23:02;25.40;79.60
13482;DHT22;6813;60.352;15.746;2023-07-29T15:25:28;25.50;75.50
13482;DHT22;6813;60.352;15.746;2023-07-29T15:27:54;25.40;75.00
13482;DHT22;6813;60.352;15.746;2023-07-29T15:30:20;25.40;77.90
13482;DHT22;6813;60.352;15.746;2023-07-29T15:32:45;25.50;78.40
13482;DHT22;6813;60.352;15.746;2023-07-29T15:35:11;25.50;76.00
13482;DHT22;6813;60.352;15.746;2023-07-29T15:37:37;25.40;77.40
13482;DHT22;6813;60.352;15.746;2023-07-29T15:40:04;25.30;77.30
13482;DHT22;6813;60.352;15.746;2023-07-29T15:42:31;25.30;75.20
13482;DHT22;6813;60.352;15.746;2023-07-29T15:44:57;25.10;76.10
13482;DHT22;6813;60.352;15.746;2023-07-29T15:47:23;25.10;77.20
13482;DHT22;6813;60.352;15.746;2023-07-29T15:49:48;25.00;77.70
13482;DHT22;6813;60.352;15.746;2023-07-29T15:52:14;25.10;79.00
13482;DHT22;6813;60.352;15.746;2023-07-29T15:54:41;25.10;78.20